Time;durP1;ratioP1;P1;durP2;ratioP2;P2;SDS_P1;SDS_P2;PMS_P1;PMS_P2;Temp;Humidity;BMP_temperature;BMP_pressure;BME280_temperature;BME280_humidity;BME280_pressure;Samples;Min_cycle;Max_cycle;Signal;HPM_P1;HPM_P2
2021/07/08 00:00:14;;;;;;;13.18;6.75;;;;;;;;;;4995010;28;20027;-67
2021/07/08 00:02:40;;;;;;;10.57;6.60;;;;;;;;;;5010316;28;20036;-66
2021/07/08 00:05:10;;;;;;;9.25;7.25;;;;;;;;;;5001995;28;20026;-67
2021/07/08 00:07:36;;;;;;;9.68;7.05;;;;;;;;;;5000896;28;20440;-66
2021/07/08 00:10:05;;;;;;;12.98;7.25;;;;;;;;;;5008469;28;20142;-66
2021/07/08 00:12:31;;;;;;;10.73;7.15;;;;;;;;;;4993670;28;20077;-67
2021/07/08 00:14:57;;;;;;;11.70;6.80;;;;;;;;;;5000290;28;20356;-67
2021/07/08 00:17:23;;;;;;;14.00;7.85;;;;;;;;;;5008190;28;20367;-67
2021/07/08 00:19:49;;;;;;;9.35;6.20;;;;;;;;;;4995067;28;20049;-66
2021/07/08 00:22:15;;;;;;;8.13;6.00;;;;;;;;;;5000370;28;20042;-66
2021/07/08 00:24:41;;;;;;;12.10;6.38;;;;;;;;;;4996219;28;20030;-67
2021/07/08 00:27:07;;;;;;;16.40;7.07;;;;;;;;;;5001164;28;20096;-66
2021/07/08 00:29:33;;;;;;;12.75;7.30;;;;;;;;;;5005635;28;20035;-66
2021/07/08 00:31:59;;;;;;;13.43;6.78;;;;;;;;;;4995696;28;20062;-67
2021/07/08 00:34:25;;;;;;;12.82;6.88;;;;;;;;;;4999764;28;20026;-66
2021/07/08 00:36:51;;;;;;;11.52;6.55;;;;;;;;;;5003021;28;20030;-66
2021/07/08 00:39:17;;;;;;;10.38;6.93;;;;;;;;;;5011024;28;20041;-67
2021/07/08 00:41:43;;;;;;;11.90;6.68;;;;;;;;;;5030097;23;20026;-68
2021/07/08 00:44:09;;;;;;;10.18;6.28;;;;;;;;;;5025571;28;20034;-68
2021/07/08 00:46:35;;;;;;;12.43;7.28;;;;;;;;;;5034655;28;20044;-68
2021/07/08 00:49:01;;;;;;;15.98;7.30;;;;;;;;;;5031409;28;20022;-68
2021/07/08 00:51:27;;;;;;;13.43;7.50;;;;;;;;;;5027357;28;20036;-68
2021/07/08 00:53:53;;;;;;;13.23;7.15;;;;;;;;;;5011249;28;20397;-68
2021/07/08 00:56:19;;;;;;;11.93;7.40;;;;;;;;;;5006247;28;20105;-68
2021/07/08 00:59:01;;;;;;;11.73;6.65;;;;;;;;;;5008069;28;20041;-68
2021/07/08 01:01:27;;;;;;;13.23;7.45;;;;;;;;;;5009744;28;20097;-68
2021/07/08 01:03:53;;;;;;;13.73;7.50;;;;;;;;;;5012203;28;20025;-68
2021/07/08 01:06:19;;;;;;;15.85;7.00;;;;;;;;;;5012652;28;20066;-68
2021/07/08 01:08:45;;;;;;;17.48;7.55;;;;;;;;;;5011774;28;20018;-68
2021/07/08 01:11:11;;;;;;;10.95;7.45;;;;;;;;;;5007227;28;20445;-70
2021/07/08 01:13:37;;;;;;;11.60;7.57;;;;;;;;;;5012398;28;20109;-70
2021/07/08 01:16:03;;;;;;;15.57;7.53;;;;;;;;;;5010230;28;20021;-70
2021/07/08 01:18:29;;;;;;;14.73;8.18;;;;;;;;;;5012165;28;20030;-70
2021/07/08 01:20:55;;;;;;;11.82;7.63;;;;;;;;;;5011876;28;20033;-68
2021/07/08 01:23:21;;;;;;;14.23;8.23;;;;;;;;;;5011487;28;20036;-68
2021/07/08 01:25:47;;;;;;;16.50;8.75;;;;;;;;;;5010662;28;20029;-68
2021/07/08 01:28:13;;;;;;;12.02;7.70;;;;;;;;;;5013475;28;20026;-70
2021/07/08 01:30:39;;;;;;;14.10;8.68;;;;;;;;;;5016111;28;20033;-70
2021/07/08 01:33:06;;;;;;;12.60;8.73;;;;;;;;;;5012976;28;20035;-70
2021/07/08 01:35:32;;;;;;;15.75;8.90;;;;;;;;;;5011624;28;20382;-68
2021/07/08 01:37:58;;;;;;;16.08;8.63;;;;;;;;;;5011600;28;20109;-68
2021/07/08 01:40:24;;;;;;;12.40;8.90;;;;;;;;;;5012075;28;20099;-68
2021/07/08 01:42:50;;;;;;;13.13;8.23;;;;;;;;;;5011148;28;20110;-68
2021/07/08 01:45:17;;;;;;;15.52;8.85;;;;;;;;;;5011182;28;20104;-68
2021/07/08 01:47:44;;;;;;;15.55;8.32;;;;;;;;;;5020462;28;20482;-68
2021/07/08 01:50:14;;;;;;;15.07;9.68;;;;;;;;;;5014804;28;20025;-68
2021/07/08 01:52:40;;;;;;;15.02;8.32;;;;;;;;;;5019733;28;20025;-68
2021/07/08 01:55:06;;;;;;;16.48;8.82;;;;;;;;;;5016457;28;20022;-68
2021/07/08 01:57:32;;;;;;;17.13;9.85;;;;;;;;;;5011104;28;20395;-68
2021/07/08 01:59:58;;;;;;;14.32;8.35;;;;;;;;;;5026260;28;20022;-68
2021/07/08 02:02:24;;;;;;;13.05;8.40;;;;;;;;;;5010870;28;20026;-68
2021/07/08 02:04:50;;;;;;;13.75;8.05;;;;;;;;;;5019355;28;20026;-68
2021/07/08 02:07:16;;;;;;;14.20;8.50;;;;;;;;;;5014009;28;20061;-68
2021/07/08 02:09:41;;;;;;;11.88;8.25;;;;;;;;;;5011000;28;20095;-68
2021/07/08 02:12:09;;;;;;;13.77;8.35;;;;;;;;;;5011223;28;20092;-68
2021/07/08 02:14:35;;;;;;;14.25;8.60;;;;;;;;;;5009082;28;20037;-70
2021/07/08 02:17:01;;;;;;;12.85;9.07;;;;;;;;;;5022408;28;20459;-68
2021/07/08 02:19:27;;;;;;;12.73;8.70;;;;;;;;;;5012698;28;20450;-68
2021/07/08 02:21:53;;;;;;;10.82;8.02;;;;;;;;;;5011171;28;20426;-70
2021/07/08 02:24:19;;;;;;;12.38;9.23;;;;;;;;;;5022458;28;20026;-68
2021/07/08 02:26:45;;;;;;;11.32;8.73;;;;;;;;;;5009072;28;20029;-68
2021/07/08 02:29:11;;;;;;;13.05;8.82;;;;;;;;;;5010213;28;20030;-68
2021/07/08 02:31:37;;;;;;;14.73;8.90;;;;;;;;;;5009417;28;20434;-68
2021/07/08 02:34:04;;;;;;;14.43;8.27;;;;;;;;;;5010575;28;20033;-68
2021/07/08 02:36:29;;;;;;;16.15;8.65;;;;;;;;;;5010224;28;20030;-68
2021/07/08 02:38:55;;;;;;;15.77;8.40;;;;;;;;;;5011083;28;20132;-68
2021/07/08 02:41:21;;;;;;;12.85;8.55;;;;;;;;;;5009953;28;20135;-68
2021/07/08 02:43:47;;;;;;;15.23;8.93;;;;;;;;;;5010379;28;20124;-68
2021/07/08 02:46:13;;;;;;;19.55;10.10;;;;;;;;;;5008983;28;20038;-68
2021/07/08 02:48:39;;;;;;;17.10;8.18;;;;;;;;;;5010739;28;20034;-68
2021/07/08 02:51:05;;;;;;;20.38;9.18;;;;;;;;;;5010473;28;20033;-68
2021/07/08 02:53:31;;;;;;;14.27;9.43;;;;;;;;;;5010239;28;20041;-68
2021/07/08 02:55:57;;;;;;;17.83;9.15;;;;;;;;;;5002710;28;20085;-68
2021/07/08 02:58:23;;;;;;;18.17;9.32;;;;;;;;;;5007190;28;20265;-68
2021/07/08 03:00:49;;;;;;;15.57;9.45;;;;;;;;;;5008596;28;20034;-68
2021/07/08 03:03:16;;;;;;;11.80;8.00;;;;;;;;;;5014198;28;20044;-70
2021/07/08 03:05:42;;;;;;;13.20;8.18;;;;;;;;;;5009261;28;20040;-67
2021/07/08 03:08:08;;;;;;;12.85;8.48;;;;;;;;;;5009203;28;20026;-68
2021/07/08 03:10:34;;;;;;;13.38;8.95;;;;;;;;;;5009197;28;20081;-68
2021/07/08 03:13:00;;;;;;;15.27;9.50;;;;;;;;;;5029339;28;20513;-68
2021/07/08 03:15:26;;;;;;;11.32;7.85;;;;;;;;;;5008437;28;20037;-68
2021/07/08 03:17:54;;;;;;;10.98;8.60;;;;;;;;;;5009371;28;20144;-70
2021/07/08 03:20:23;;;;;;;19.35;10.13;;;;;;;;;;5010433;28;20493;-68
2021/07/08 03:22:50;;;;;;;17.25;8.57;;;;;;;;;;5011055;28;20514;-68
2021/07/08 03:25:17;;;;;;;13.00;8.05;;;;;;;;;;5009803;28;20399;-68
2021/07/08 03:27:43;;;;;;;15.98;9.13;;;;;;;;;;5009132;28;20026;-68
2021/07/08 03:30:10;;;;;;;13.82;9.02;;;;;;;;;;5011155;28;20103;-68
2021/07/08 03:32:37;;;;;;;13.50;9.68;;;;;;;;;;5011253;28;20030;-70
2021/07/08 03:35:04;;;;;;;15.35;9.32;;;;;;;;;;5011862;28;20026;-70
2021/07/08 03:37:30;;;;;;;17.27;9.02;;;;;;;;;;5009925;28;20045;-70
2021/07/08 03:39:56;;;;;;;15.30;8.82;;;;;;;;;;5007301;28;20480;-70
2021/07/08 03:42:22;;;;;;;15.18;9.68;;;;;;;;;;5015497;28;20038;-70
2021/07/08 03:44:48;;;;;;;13.80;8.50;;;;;;;;;;5018134;28;20033;-70
2021/07/08 03:47:14;;;;;;;22.77;10.38;;;;;;;;;;5008525;28;20033;-68
2021/07/08 03:49:39;;;;;;;14.18;9.10;;;;;;;;;;5009847;28;20029;-68
2021/07/08 03:52:06;;;;;;;14.50;9.43;;;;;;;;;;5022705;28;20022;-68
2021/07/08 03:54:31;;;;;;;16.23;9.45;;;;;;;;;;5012129;28;20057;-70
2021/07/08 03:56:57;;;;;;;16.75;10.18;;;;;;;;;;5007340;28;20046;-70
2021/07/08 03:59:23;;;;;;;16.33;9.40;;;;;;;;;;5009756;28;20153;-68
2021/07/08 04:01:49;;;;;;;14.35;9.48;;;;;;;;;;5007849;28;20046;-68
2021/07/08 04:04:15;;;;;;;13.88;9.40;;;;;;;;;;5005631;28;20037;-68
2021/07/08 04:06:41;;;;;;;16.33;9.30;;;;;;;;;;5009502;28;20400;-68
2021/07/08 04:09:07;;;;;;;14.50;9.40;;;;;;;;;;5017338;28;20038;-70
2021/07/08 04:11:33;;;;;;;18.08;8.85;;;;;;;;;;5009548;28;20030;-70
2021/07/08 04:13:59;;;;;;;14.98;9.40;;;;;;;;;;5009270;28;20487;-68
2021/07/08 04:16:25;;;;;;;14.98;8.80;;;;;;;;;;5008256;28;20057;-70
2021/07/08 04:18:51;;;;;;;15.27;9.48;;;;;;;;;;5009547;28;20394;-70
2021/07/08 04:21:17;;;;;;;14.23;8.55;;;;;;;;;;5009469;28;20407;-70
2021/07/08 04:23:43;;;;;;;17.20;10.00;;;;;;;;;;5009784;28;20088;-68
2021/07/08 04:26:09;;;;;;;15.35;9.50;;;;;;;;;;5010528;28;20034;-68
2021/07/08 04:28:35;;;;;;;14.98;9.20;;;;;;;;;;5011998;28;20080;-68
2021/07/08 04:31:01;;;;;;;15.57;9.40;;;;;;;;;;5012613;28;20025;-68
2021/07/08 04:33:27;;;;;;;19.33;9.52;;;;;;;;;;5019714;28;20072;-70
2021/07/08 04:35:53;;;;;;;15.00;9.90;;;;;;;;;;5009831;28;20677;-68
2021/07/08 04:38:19;;;;;;;18.13;10.82;;;;;;;;;;5013533;28;20289;-68
2021/07/08 04:40:45;;;;;;;18.38;9.65;;;;;;;;;;5011573;28;20044;-68
2021/07/08 04:43:12;;;;;;;21.15;9.57;;;;;;;;;;5012313;28;20037;-68
2021/07/08 04:45:38;;;;;;;16.05;9.00;;;;;;;;;;5012690;28;20034;-68
2021/07/08 04:48:04;;;;;;;18.50;9.73;;;;;;;;;;5006609;28;20483;-68
2021/07/08 04:50:31;;;;;;;14.25;10.25;;;;;;;;;;5012128;28;20037;-68
2021/07/08 04:52:57;;;;;;;14.00;8.63;;;;;;;;;;5012419;28;20053;-68
2021/07/08 04:55:24;;;;;;;17.00;9.18;;;;;;;;;;5011150;28;20053;-68
2021/07/08 04:57:53;;;;;;;15.48;9.57;;;;;;;;;;5010537;28;20022;-68
2021/07/08 05:00:21;;;;;;;22.45;9.32;;;;;;;;;;5013244;28;20034;-68
2021/07/08 05:02:47;;;;;;;13.38;8.80;;;;;;;;;;5012264;28;20041;-68
2021/07/08 05:05:13;;;;;;;13.75;9.48;;;;;;;;;;5012096;28;20034;-68
2021/07/08 05:07:39;;;;;;;13.77;8.93;;;;;;;;;;5006267;28;20088;-68
2021/07/08 05:10:07;;;;;;;14.45;9.60;;;;;;;;;;5012550;28;20073;-68
2021/07/08 05:12:33;;;;;;;17.52;9.10;;;;;;;;;;5011556;28;20033;-68
2021/07/08 05:14:59;;;;;;;18.27;9.68;;;;;;;;;;5014282;28;20438;-68
2021/07/08 05:17:25;;;;;;;16.58;9.40;;;;;;;;;;5025170;28;20021;-68
2021/07/08 05:19:52;;;;;;;17.23;9.88;;;;;;;;;;5013021;28;20076;-70
2021/07/08 05:22:21;;;;;;;18.67;9.15;;;;;;;;;;5012128;28;20072;-68
2021/07/08 05:24:47;;;;;;;14.63;8.73;;;;;;;;;;5009981;28;20064;-68
2021/07/08 05:27:16;;;;;;;17.73;9.43;;;;;;;;;;5011713;28;20034;-68
2021/07/08 05:29:45;;;;;;;12.77;8.63;;;;;;;;;;5023780;28;20101;-70
2021/07/08 05:32:14;;;;;;;15.70;9.20;;;;;;;;;;5011798;28;20036;-68
2021/07/08 05:34:41;;;;;;;18.90;9.10;;;;;;;;;;5024629;28;20093;-68
2021/07/08 05:37:07;;;;;;;15.80;8.63;;;;;;;;;;5030906;28;20017;-68
2021/07/08 05:39:33;;;;;;;15.30;8.35;;;;;;;;;;5020998;28;20026;-68
2021/07/08 05:41:59;;;;;;;18.45;9.48;;;;;;;;;;5023516;28;20095;-68
2021/07/08 05:44:25;;;;;;;16.92;9.60;;;;;;;;;;5011480;28;20053;-68
2021/07/08 05:46:51;;;;;;;16.45;8.70;;;;;;;;;;5007975;28;20483;-68
2021/07/08 05:49:17;;;;;;;13.73;9.15;;;;;;;;;;5016871;28;20259;-68
2021/07/08 05:51:43;;;;;;;13.35;7.80;;;;;;;;;;5013482;28;20030;-68
2021/07/08 05:54:09;;;;;;;12.90;8.73;;;;;;;;;;5005434;28;20065;-68
2021/07/08 05:56:35;;;;;;;19.33;9.18;;;;;;;;;;5004184;28;20019;-68
2021/07/08 05:59:01;;;;;;;12.15;7.85;;;;;;;;;;5008115;28;20056;-68
2021/07/08 06:01:27;;;;;;;21.88;10.13;;;;;;;;;;5010556;28;20030;-69
2021/07/08 06:03:52;;;;;;;14.82;8.07;;;;;;;;;;5007005;28;20025;-68
2021/07/08 06:06:18;;;;;;;13.23;8.73;;;;;;;;;;5011174;28;20100;-68
2021/07/08 06:08:45;;;;;;;17.38;9.10;;;;;;;;;;5005773;28;20041;-68
2021/07/08 06:11:11;;;;;;;15.98;9.43;;;;;;;;;;5008318;28;20111;-68
2021/07/08 06:13:37;;;;;;;13.80;8.85;;;;;;;;;;5017159;28;20054;-69
2021/07/08 06:16:03;;;;;;;14.02;8.77;;;;;;;;;;5026027;28;20390;-69
2021/07/08 06:18:30;;;;;;;12.38;8.52;;;;;;;;;;5029425;28;20025;-68
2021/07/08 06:20:56;;;;;;;13.98;7.70;;;;;;;;;;5023745;28;20025;-68
2021/07/08 06:23:22;;;;;;;16.85;7.80;;;;;;;;;;5010876;28;20084;-68
2021/07/08 06:25:49;;;;;;;12.85;7.75;;;;;;;;;;5014436;28;20030;-68
2021/07/08 06:28:15;;;;;;;11.55;7.22;;;;;;;;;;5004185;28;20030;-67
2021/07/08 06:30:42;;;;;;;12.70;7.60;;;;;;;;;;5015273;28;20022;-68
2021/07/08 06:33:08;;;;;;;12.70;7.60;;;;;;;;;;4998490;28;20076;-70
2021/07/08 06:35:34;;;;;;;12.88;8.15;;;;;;;;;;5012869;28;20431;-68
2021/07/08 06:38:00;;;;;;;11.32;6.97;;;;;;;;;;4999049;28;20124;-70
2021/07/08 06:40:26;;;;;;;15.60;7.18;;;;;;;;;;4996345;28;20439;-68
2021/07/08 06:42:53;;;;;;;11.68;7.00;;;;;;;;;;5015578;28;20034;-68
2021/07/08 06:45:19;;;;;;;12.23;6.63;;;;;;;;;;5001099;28;20632;-68
2021/07/08 06:47:47;;;;;;;11.95;6.60;;;;;;;;;;5000762;28;20475;-68
2021/07/08 06:50:14;;;;;;;13.38;6.13;;;;;;;;;;5004934;28;20042;-68
2021/07/08 06:52:40;;;;;;;9.75;5.57;;;;;;;;;;4997212;28;20034;-68
2021/07/08 06:55:06;;;;;;;8.05;5.40;;;;;;;;;;5046977;23;20037;-65
2021/07/08 06:57:32;;;;;;;11.68;5.63;;;;;;;;;;5029103;28;20025;-66
2021/07/08 06:59:58;;;;;;;8.15;5.25;;;;;;;;;;5028423;28;20161;-66
2021/07/08 07:02:24;;;;;;;14.05;5.72;;;;;;;;;;5028825;28;20525;-65
2021/07/08 07:04:50;;;;;;;9.75;4.97;;;;;;;;;;5026819;28;20053;-66
2021/07/08 07:07:16;;;;;;;9.57;5.05;;;;;;;;;;5024595;28;20063;-64
2021/07/08 07:09:42;;;;;;;8.75;4.63;;;;;;;;;;5028517;28;20025;-64
2021/07/08 07:12:09;;;;;;;10.52;4.53;;;;;;;;;;5028246;28;20029;-64
2021/07/08 07:14:35;;;;;;;6.57;3.90;;;;;;;;;;5026623;28;20041;-64
2021/07/08 07:17:01;;;;;;;8.07;4.53;;;;;;;;;;5021371;28;20417;-65
2021/07/08 07:19:27;;;;;;;5.65;3.95;;;;;;;;;;5019919;28;20029;-64
2021/07/08 07:21:54;;;;;;;9.02;4.28;;;;;;;;;;5025610;28;20026;-64
2021/07/08 07:24:20;;;;;;;7.07;3.58;;;;;;;;;;5029404;28;20026;-64
2021/07/08 07:26:46;;;;;;;8.23;4.63;;;;;;;;;;5029143;28;20075;-64
2021/07/08 07:29:12;;;;;;;6.97;3.58;;;;;;;;;;5023907;28;20484;-64
2021/07/08 07:31:38;;;;;;;6.10;3.92;;;;;;;;;;5028315;28;20275;-65
2021/07/08 07:34:04;;;;;;;6.30;3.45;;;;;;;;;;5025006;28;20018;-64
2021/07/08 07:36:30;;;;;;;5.13;3.17;;;;;;;;;;5024182;28;20527;-65
2021/07/08 07:38:56;;;;;;;5.65;3.08;;;;;;;;;;5026680;28;20483;-64
2021/07/08 07:41:22;;;;;;;8.23;3.17;;;;;;;;;;5025932;28;20029;-64
2021/07/08 07:43:48;;;;;;;6.63;3.97;;;;;;;;;;5029702;28;20044;-65
2021/07/08 07:46:14;;;;;;;6.25;3.10;;;;;;;;;;5019261;28;20434;-64
2021/07/08 07:48:40;;;;;;;3.80;2.63;;;;;;;;;;5022487;28;20034;-64
2021/07/08 07:51:06;;;;;;;6.82;3.38;;;;;;;;;;5028044;28;20032;-64
2021/07/08 07:53:33;;;;;;;5.00;2.67;;;;;;;;;;5028280;28;20079;-65
2021/07/08 07:55:58;;;;;;;4.65;3.15;;;;;;;;;;5029262;28;20028;-64
2021/07/08 07:58:26;;;;;;;6.50;3.40;;;;;;;;;;5025067;28;20022;-64
2021/07/08 08:00:55;;;;;;;5.60;2.83;;;;;;;;;;5026621;28;20029;-63
2021/07/08 08:03:21;;;;;;;4.35;2.63;;;;;;;;;;5031060;28;20032;-64
2021/07/08 08:08:34;;;;;;;4.47;1.70;;;;;;;;;;5023105;28;20437;-64
2021/07/08 08:11:00;;;;;;;4.68;1.65;;;;;;;;;;5032539;28;20045;-64
2021/07/08 08:13:27;;;;;;;4.32;1.27;;;;;;;;;;5025752;28;20032;-66
2021/07/08 08:15:53;;;;;;;3.88;1.20;;;;;;;;;;5020614;28;20480;-64
2021/07/08 08:18:20;;;;;;;4.13;2.03;;;;;;;;;;5039281;28;20018;-64
2021/07/08 08:20:46;;;;;;;3.78;1.98;;;;;;;;;;5025398;28;20052;-65
2021/07/08 08:23:13;;;;;;;3.20;1.55;;;;;;;;;;5027041;28;20033;-65
2021/07/08 08:25:39;;;;;;;3.42;1.42;;;;;;;;;;5032953;28;20096;-65
2021/07/08 08:28:05;;;;;;;5.10;1.45;;;;;;;;;;5026245;28;20096;-64
2021/07/08 08:30:31;;;;;;;3.53;1.40;;;;;;;;;;5027259;28;20022;-65
2021/07/08 08:32:57;;;;;;;3.25;1.67;;;;;;;;;;5027502;28;20060;-65
2021/07/08 08:35:23;;;;;;;5.28;1.85;;;;;;;;;;5023142;28;20425;-65
2021/07/08 08:37:49;;;;;;;3.40;1.55;;;;;;;;;;5028073;28;20029;-65
2021/07/08 08:40:15;;;;;;;2.38;1.52;;;;;;;;;;5029949;28;20029;-65
2021/07/08 08:42:42;;;;;;;2.92;1.30;;;;;;;;;;5027897;28;20104;-65
2021/07/08 08:45:11;;;;;;;3.42;1.63;;;;;;;;;;5030019;28;20029;-65
2021/07/08 08:47:56;;;;;;;2.40;1.65;;;;;;;;;;5033056;28;20033;-64
2021/07/08 08:50:23;;;;;;;3.38;1.52;;;;;;;;;;5032055;28;20030;-65
2021/07/08 08:52:49;;;;;;;5.40;1.67;;;;;;;;;;5031167;28;20025;-65
2021/07/08 08:55:15;;;;;;;5.30;1.52;;;;;;;;;;5030921;28;20026;-65
2021/07/08 08:57:41;;;;;;;2.30;1.33;;;;;;;;;;5031634;28;20026;-65
2021/07/08 09:00:25;;;;;;;3.55;1.95;;;;;;;;;;5031019;28;20128;-64
2021/07/08 09:03:01;;;;;;;2.90;1.52;;;;;;;;;;5032319;28;20033;-65
2021/07/08 09:05:27;;;;;;;6.35;1.92;;;;;;;;;;5031943;28;20116;-65
2021/07/08 09:08:08;;;;;;;3.75;1.92;;;;;;;;;;5022123;28;20037;-65
2021/07/08 09:10:34;;;;;;;4.70;1.58;;;;;;;;;;5026482;28;20026;-64
2021/07/08 09:13:00;;;;;;;5.78;1.48;;;;;;;;;;5027934;28;20363;-65
2021/07/08 09:15:26;;;;;;;5.00;1.90;;;;;;;;;;5023096;28;20037;-65
2021/07/08 09:17:52;;;;;;;6.18;2.10;;;;;;;;;;5027891;28;20018;-65
2021/07/08 09:20:19;;;;;;;3.65;1.80;;;;;;;;;;5024717;28;20022;-65
2021/07/08 09:22:46;;;;;;;5.57;1.80;;;;;;;;;;5031779;28;20027;-64
2021/07/08 09:25:21;;;;;;;4.38;1.60;;;;;;;;;;5032378;28;20025;-64
2021/07/08 09:27:48;;;;;;;3.85;1.90;;;;;;;;;;5032302;28;20021;-65
2021/07/08 09:30:27;;;;;;;4.35;1.58;;;;;;;;;;5032078;28;20192;-65
2021/07/08 09:32:53;;;;;;;4.18;2.22;;;;;;;;;;5029735;28;20033;-65
2021/07/08 09:35:36;;;;;;;4.57;1.77;;;;;;;;;;5026520;28;20088;-65
2021/07/08 09:38:08;;;;;;;4.53;2.65;;;;;;;;;;5030937;28;20029;-65
2021/07/08 09:40:34;;;;;;;5.07;2.35;;;;;;;;;;5031918;28;20029;-65
2021/07/08 09:43:00;;;;;;;4.10;1.85;;;;;;;;;;5027948;28;20380;-64
2021/07/08 09:45:26;;;;;;;5.30;2.22;;;;;;;;;;5024759;28;20029;-65
2021/07/08 09:47:52;;;;;;;5.07;2.75;;;;;;;;;;5031682;28;20025;-65
2021/07/08 09:50:30;;;;;;;7.32;2.25;;;;;;;;;;5030518;28;20480;-64
2021/07/08 09:53:05;;;;;;;4.38;2.42;;;;;;;;;;5015788;28;20030;-65
2021/07/08 09:55:56;;;;;;;3.58;2.40;;;;;;;;;;5030824;28;20032;-65
2021/07/08 09:58:22;;;;;;;6.13;2.47;;;;;;;;;;5024521;28;20101;-65
2021/07/08 10:00:48;;;;;;;5.70;3.03;;;;;;;;;;5031281;28;20156;-63
2021/07/08 10:03:15;;;;;;;4.57;2.38;;;;;;;;;;5017518;28;20026;-63
2021/07/08 10:05:42;;;;;;;5.63;2.75;;;;;;;;;;5022661;28;20100;-64
2021/07/08 10:08:08;;;;;;;3.42;2.33;;;;;;;;;;5024885;28;20032;-67
2021/07/08 10:10:34;;;;;;;3.83;2.35;;;;;;;;;;5026579;28;20441;-70
2021/07/08 10:13:00;;;;;;;6.50;2.63;;;;;;;;;;5025682;28;20052;-64
2021/07/08 10:15:29;;;;;;;4.63;2.17;;;;;;;;;;5026041;28;20025;-66
2021/07/08 10:17:59;;;;;;;4.63;2.38;;;;;;;;;;5018074;28;20013;-64
2021/07/08 10:20:25;;;;;;;4.53;2.25;;;;;;;;;;5021345;28;20009;-64
2021/07/08 10:22:51;;;;;;;5.38;2.90;;;;;;;;;;5021980;28;20075;-64
2021/07/08 10:25:17;;;;;;;6.85;3.15;;;;;;;;;;5016301;28;20042;-64
2021/07/08 10:27:44;;;;;;;7.88;2.25;;;;;;;;;;5021545;28;20595;-64
2021/07/08 10:30:11;;;;;;;6.57;3.13;;;;;;;;;;5017544;28;20034;-64
2021/07/08 10:32:37;;;;;;;7.28;3.22;;;;;;;;;;5020420;28;20437;-64
2021/07/08 10:35:03;;;;;;;4.25;2.47;;;;;;;;;;5021620;28;20021;-64
2021/07/08 10:37:32;;;;;;;3.55;2.25;;;;;;;;;;5024984;28;20481;-64
2021/07/08 10:39:59;;;;;;;7.15;2.80;;;;;;;;;;5018584;28;20117;-64
2021/07/08 10:42:46;;;;;;;3.63;1.90;;;;;;;;;;5019559;28;20017;-64
2021/07/08 10:45:23;;;;;;;4.43;2.58;;;;;;;;;;5019326;28;20022;-65
2021/07/08 10:47:50;;;;;;;3.60;2.17;;;;;;;;;;5033598;28;20075;-65
2021/07/08 10:50:31;;;;;;;5.97;2.40;;;;;;;;;;5022606;28;20037;-65
2021/07/08 10:52:57;;;;;;;3.63;2.28;;;;;;;;;;5025431;28;20132;-65
2021/07/08 10:55:56;;;;;;;7.15;2.40;;;;;;;;;;5020701;28;20045;-65
2021/07/08 10:58:37;;;;;;;8.15;3.67;;;;;;;;;;5012514;28;20053;-66
2021/07/08 11:01:03;;;;;;;6.22;3.15;;;;;;;;;;5026760;28;20026;-65
2021/07/08 11:03:45;;;;;;;7.40;2.78;;;;;;;;;;5025286;28;20478;-65
2021/07/08 11:06:24;;;;;;;7.95;3.72;;;;;;;;;;5018396;28;20021;-65
2021/07/08 11:08:51;;;;;;;;;;;;;;;;;;5021379;28;20057;-64
2021/07/08 11:11:23;;;;;;;4.70;2.80;;;;;;;;;;5027123;28;19905;-64
2021/07/08 11:13:50;;;;;;;6.60;3.72;;;;;;;;;;5039601;28;20030;-65
2021/07/08 11:16:39;;;;;;;6.07;3.70;;;;;;;;;;5028990;28;20030;-65
2021/07/08 11:19:05;;;;;;;8.57;5.00;;;;;;;;;;5017609;28;20025;-64
2021/07/08 11:21:50;;;;;;;11.90;4.18;;;;;;;;;;5027064;28;20050;-64
2021/07/08 11:24:17;;;;;;;4.43;3.10;;;;;;;;;;5027959;28;20029;-66
2021/07/08 11:26:53;;;;;;;5.90;3.30;;;;;;;;;;5018613;28;20033;-65
2021/07/08 11:29:38;;;;;;;6.07;3.08;;;;;;;;;;5015398;28;20022;-65
2021/07/08 11:32:19;;;;;;;7.25;3.20;;;;;;;;;;5016683;28;20045;-66
2021/07/08 11:34:57;;;;;;;5.75;3.10;;;;;;;;;;5016891;28;20493;-66
2021/07/08 11:37:25;;;;;;;7.70;3.63;;;;;;;;;;5027726;28;20112;-66
2021/07/08 11:39:58;;;;;;;8.80;3.38;;;;;;;;;;5024941;28;20048;-66
2021/07/08 11:42:25;;;;;;;3.38;2.58;;;;;;;;;;5019714;28;20521;-66
2021/07/08 11:44:53;;;;;;;4.13;2.45;;;;;;;;;;5019972;28;20027;-66
2021/07/08 11:47:20;;;;;;;6.05;2.63;;;;;;;;;;5019281;28;20022;-66
2021/07/08 11:49:47;;;;;;;3.10;1.90;;;;;;;;;;5021875;28;20044;-66
2021/07/08 11:52:20;;;;;;;4.90;2.17;;;;;;;;;;5027025;28;20032;-66
2021/07/08 11:54:59;;;;;;;5.80;1.98;;;;;;;;;;5032834;28;20036;-66
2021/07/08 11:57:26;;;;;;;4.40;2.10;;;;;;;;;;5025084;28;20029;-66
2021/07/08 11:59:52;;;;;;;4.47;2.22;;;;;;;;;;5029342;28;20044;-66
2021/07/08 12:02:32;;;;;;;4.65;1.88;;;;;;;;;;5026268;28;20022;-66
2021/07/08 12:05:14;;;;;;;4.28;1.92;;;;;;;;;;5028845;28;20069;-65
2021/07/08 12:07:48;;;;;;;5.47;1.90;;;;;;;;;;5032779;28;20032;-66
2021/07/08 12:10:23;;;;;;;4.10;1.83;;;;;;;;;;5032919;28;20017;-66
2021/07/08 12:12:49;;;;;;;4.85;2.17;;;;;;;;;;5031290;28;20386;-66
2021/07/08 12:15:15;;;;;;;7.28;2.20;;;;;;;;;;5024266;28;20044;-66
2021/07/08 12:17:42;;;;;;;6.68;2.35;;;;;;;;;;5032102;28;20021;-66
2021/07/08 12:20:08;;;;;;;3.53;1.85;;;;;;;;;;5018777;28;20010;-66
2021/07/08 12:22:35;;;;;;;7.20;2.47;;;;;;;;;;5028384;28;20025;-66
2021/07/08 12:25:12;;;;;;;3.78;2.05;;;;;;;;;;5029232;28;20014;-66
2021/07/08 12:27:38;;;;;;;4.78;2.47;;;;;;;;;;5032457;28;20037;-66
2021/07/08 12:30:04;;;;;;;4.45;2.20;;;;;;;;;;5032917;28;20021;-69
2021/07/08 12:32:30;;;;;;;4.50;2.22;;;;;;;;;;5032843;28;20030;-66
2021/07/08 12:34:59;;;;;;;7.28;2.83;;;;;;;;;;5031807;28;20072;-66
2021/07/08 12:37:38;;;;;;;4.82;2.90;;;;;;;;;;5032285;28;20490;-66
2021/07/08 12:40:06;;;;;;;5.05;2.20;;;;;;;;;;5032234;28;20063;-66
2021/07/08 12:42:40;;;;;;;3.50;1.90;;;;;;;;;;5032189;28;20471;-66
2021/07/08 12:45:10;;;;;;;6.80;2.35;;;;;;;;;;5032251;28;20025;-66
2021/07/08 12:47:37;;;;;;;9.10;3.42;;;;;;;;;;5024454;28;20025;-66
2021/07/08 12:50:04;;;;;;;6.43;2.88;;;;;;;;;;5029823;28;20196;-66
2021/07/08 12:52:30;;;;;;;6.20;3.05;;;;;;;;;;5025478;28;20546;-66
2021/07/08 12:54:56;;;;;;;4.07;2.38;;;;;;;;;;5025003;28;20461;-66
2021/07/08 12:57:22;;;;;;;7.55;2.67;;;;;;;;;;5018349;28;20026;-65
2021/07/08 13:00:01;;;;;;;5.60;2.30;;;;;;;;;;5030928;28;20018;-67
2021/07/08 13:02:28;;;;;;;4.50;2.75;;;;;;;;;;5032051;28;20026;-67
2021/07/08 13:05:06;;;;;;;5.90;2.50;;;;;;;;;;5031800;28;20029;-66
2021/07/08 13:07:33;;;;;;;5.70;2.53;;;;;;;;;;5029343;28;20021;-66
2021/07/08 13:10:02;;;;;;;3.88;2.70;;;;;;;;;;5023385;28;20036;-66
2021/07/08 13:12:28;;;;;;;5.97;2.77;;;;;;;;;;5031806;28;20390;-66
2021/07/08 13:14:55;;;;;;;7.13;2.90;;;;;;;;;;5031881;28;20108;-66
2021/07/08 13:17:28;;;;;;;5.55;2.83;;;;;;;;;;5026699;28;20014;-66
2021/07/08 13:20:11;;;;;;;6.97;3.30;;;;;;;;;;5025658;28;20018;-67
2021/07/08 13:22:37;;;;;;;6.38;3.17;;;;;;;;;;5030566;28;20013;-67
2021/07/08 13:25:18;;;;;;;6.70;3.45;;;;;;;;;;5028946;28;20021;-67
2021/07/08 13:27:44;;;;;;;11.98;4.38;;;;;;;;;;5030855;28;20060;-66
2021/07/08 13:30:22;;;;;;;6.43;3.63;;;;;;;;;;5031479;28;20021;-65
2021/07/08 13:33:01;;;;;;;11.95;4.68;;;;;;;;;;5028647;28;20032;-65
2021/07/08 13:35:27;;;;;;;;;;;;;;;;;;5028412;28;20025;-66
2021/07/08 13:37:53;;;;;;;5.30;3.35;;;;;;;;;;5028921;28;19912;-66
2021/07/08 13:40:20;;;;;;;9.70;3.42;;;;;;;;;;5018201;28;20076;-66
2021/07/08 13:42:46;;;;;;;8.77;3.85;;;;;;;;;;5025347;28;20080;-66
2021/07/08 13:45:31;;;;;;;6.57;4.00;;;;;;;;;;5028736;28;20021;-65
2021/07/08 13:48:13;;;;;;;6.70;3.67;;;;;;;;;;5029230;28;20025;-65
2021/07/08 13:50:39;;;;;;;6.63;4.25;;;;;;;;;;5025608;28;20064;-65
2021/07/08 13:53:05;;;;;;;7.50;2.85;;;;;;;;;;5026104;28;20028;-64
2021/07/08 13:55:31;;;;;;;8.88;4.18;;;;;;;;;;5030647;28;20033;-65
2021/07/08 13:57:57;;;;;;;11.20;3.95;;;;;;;;;;5031084;28;20091;-64
2021/07/08 14:00:23;;;;;;;8.35;4.63;;;;;;;;;;5030001;28;20459;-65
2021/07/08 14:02:49;;;;;;;8.07;4.00;;;;;;;;;;5030137;28;20068;-65
2021/07/08 14:05:14;;;;;;;7.40;3.22;;;;;;;;;;5030633;28;20056;-65
2021/07/08 14:07:40;;;;;;;6.80;3.70;;;;;;;;;;5029514;28;20497;-65
2021/07/08 14:10:07;;;;;;;7.78;4.45;;;;;;;;;;5030003;28;20057;-66
2021/07/08 14:12:32;;;;;;;6.80;3.10;;;;;;;;;;5029841;28;20451;-65
2021/07/08 14:14:58;;;;;;;9.27;3.38;;;;;;;;;;5027149;28;20067;-65
2021/07/08 14:17:24;;;;;;;8.07;3.33;;;;;;;;;;5029634;28;20026;-65
2021/07/08 14:19:50;;;;;;;8.60;3.30;;;;;;;;;;5028772;28;20028;-65
2021/07/08 14:22:16;;;;;;;8.02;3.58;;;;;;;;;;5028591;28;20068;-65
2021/07/08 14:24:42;;;;;;;7.30;3.53;;;;;;;;;;5028451;28;20057;-65
2021/07/08 14:27:08;;;;;;;6.85;3.40;;;;;;;;;;5021373;28;20099;-65
2021/07/08 14:29:34;;;;;;;6.90;3.38;;;;;;;;;;5024794;28;20101;-66
2021/07/08 14:32:00;;;;;;;5.55;3.53;;;;;;;;;;5028168;28;20109;-66
2021/07/08 14:34:26;;;;;;;6.75;2.97;;;;;;;;;;5023538;28;20112;-66
2021/07/08 14:36:53;;;;;;;7.03;3.03;;;;;;;;;;5020265;28;20505;-66
2021/07/08 14:39:19;;;;;;;6.20;3.63;;;;;;;;;;5020018;28;20021;-66
2021/07/08 14:41:47;;;;;;;7.95;3.28;;;;;;;;;;5017326;28;20102;-66